Time;durP1;ratioP1;P1;durP2;ratioP2;P2;SDS_P1;SDS_P2;PMS_P1;PMS_P2;Temp;Humidity;BMP_temperature;BMP_pressure;BME280_temperature;BME280_humidity;BME280_pressure;Samples;Min_cycle;Max_cycle;Signal;HPM_P1;HPM_P2
2022/08/20 00:00:13;;;;;;;;;;;;;;;;;;1022661;28;1365;-50
2022/08/20 00:00:54;;;;;;;;;;;;;;;;;;1022074;28;3766;-49
2022/08/20 00:01:25;;;;;;;;;;;;;;;;;;1022821;28;3929;-50
2022/08/20 00:02:03;;;;;;;;;;;;;;;;;;1022244;28;1325;-51
2022/08/20 00:02:51;;;;;;;;;;;;;;;;;;1021625;28;3797;-53
2022/08/20 00:03:30;;;;;;;;;;;;;;;;;;1022252;28;4071;-50
2022/08/20 00:04:01;;;;;;;;;;;;;;;;;;1023306;28;1536;-50
2022/08/20 00:04:31;;;;;;;;;;;;;;;;;;1021322;28;3836;-50
2022/08/20 00:05:01;;;;;;;;;;;;;;;;;;1022846;28;3060;-51
2022/08/20 00:05:34;;;;;;;;;;;;;;;;;;1021288;28;3947;-53
2022/08/20 00:06:04;;;;;;;;;;;;;;;;;;1022032;28;1856;-51
2022/08/20 00:06:34;;;;;;;;;;;;;;;;;;1023322;28;3802;-50
2022/08/20 00:07:05;;;;;;;;;;;;;;;;;;1022167;28;1725;-51
2022/08/20 00:07:35;;;;;;;;;;;;;;;;;;1022029;28;3886;-48
2022/08/20 00:08:07;;;;;;;;;;;;;;;;;;1023192;28;2253;-51
2022/08/20 00:08:37;;;;;;;;;;;;;;;;;;1022604;28;3992;-49
2022/08/20 00:09:07;;;;;;;;;;;;;;;;;;1022356;28;1613;-51
2022/08/20 00:09:38;;;;;;;;;;;;;;;;;;1022411;28;4137;-53
2022/08/20 00:10:08;;;;;;;;;;;;;;;;;;1023511;28;1382;-52
2022/08/20 00:10:40;;;;;;;;;;;;;;;;;;1024054;28;4032;-54
2022/08/20 00:11:11;;;;;;;;;;;;;;;;;;1023684;28;1690;-52
2022/08/20 00:11:42;;;;;;;;;;;;;;;;;;1020941;28;4040;-53
2022/08/20 00:12:15;;;;;;;;;;;;;;;;;;1023128;28;3220;-51
2022/08/20 00:12:47;;;;;;;;;;;;;;;;;;1021710;28;3908;-52
2022/08/20 00:13:21;;;;;;;;;;;;;;;;;;1022446;28;1601;-51
2022/08/20 00:13:52;;;;;;;;;;;;;;;;;;1023303;28;3917;-49
2022/08/20 00:14:23;;;;;;;;;;;;;;;;;;1021365;28;3912;-47
2022/08/20 00:14:53;;;;;;;;;;;;;;;;;;1022493;28;1288;-47
2022/08/20 00:15:27;;;;;;;;;;;;;;;;;;1022355;28;4054;-50
2022/08/20 00:15:58;;;;;;;;;;;;;;;;;;1022687;28;3039;-49
2022/08/20 00:16:31;;;;;;;;;;;;;;;;;;1022379;28;3897;-47
2022/08/20 00:17:02;;;;;;;;;;;;;;;;;;1022869;28;2191;-53
2022/08/20 00:17:36;;;;;;;;;;;;;;;;;;1021596;28;3908;-54
2022/08/20 00:18:06;;;;;;;;;;;;;;;;;;1022659;28;3180;-50
2022/08/20 00:18:37;;;;;;;;;;;;;;;;;;1021866;28;3872;-50
2022/08/20 00:19:08;;;;;;;;;;;;;;;;;;1022566;28;1527;-53
2022/08/20 00:19:45;;;;;;;;;;;;;;;;;;1022670;28;3832;-52
2022/08/20 00:20:17;;;;;;;;;;;;;;;;;;1022142;28;1386;-52
2022/08/20 00:20:48;;;;;;;;;;;;;;;;;;1021690;28;3993;-50
2022/08/20 00:21:20;;;;;;;;;;;;;;;;;;1021832;28;3896;-50
2022/08/20 00:21:50;;;;;;;;;;;;;;;;;;1022100;28;1761;-49
2022/08/20 00:22:20;;;;;;;;;;;;;;;;;;1021289;28;3809;-48
2022/08/20 00:22:51;;;;;;;;;;;;;;;;;;1021930;28;2125;-48
2022/08/20 00:23:21;;;;;;;;;;;;;;;;;;1022720;28;4044;-48
2022/08/20 00:23:52;;;;;;;;;;;;;;;;;;1022155;28;1622;-50
2022/08/20 00:24:22;;;;;;;;;;;;;;;;;;1021783;28;4051;-50
2022/08/20 00:24:53;;;;;;;;;;;;;;;;;;1023699;28;1907;-46
2022/08/20 00:25:27;;;;;;;;;;;;;;;;;;1022629;28;4239;-51
2022/08/20 00:25:57;;;;;;;;;;;;;;;;;;1022615;28;1543;-53
2022/08/20 00:26:28;;;;;;;;;;;;;;;;;;1021559;28;4416;-51
2022/08/20 00:26:58;;;;;;;;;;;;;;;;;;1021857;28;3649;-49
2022/08/20 00:27:28;;;;;;;;;;;;;;;;;;1021916;28;3897;-49
2022/08/20 00:27:58;;;;;;;;;;;;;;;;;;1021874;28;2824;-53
2022/08/20 00:28:35;;;;;;;;;;;;;;;;;;1025015;28;3945;-50
2022/08/20 00:29:13;;;;;;;;;;;;;;;;;;1026148;28;1902;-50
2022/08/20 00:29:50;;;;;;;;;;;;;;;;;;1025927;28;3837;-50
2022/08/20 00:30:20;;;;;;;;;;;;;;;;;;1025669;28;4172;-54
2022/08/20 00:30:51;;;;;;;;;;;;;;;;;;1025938;28;3012;-49
2022/08/20 00:31:22;;;;;;;;;;;;;;;;;;1025775;28;3932;-49
2022/08/20 00:31:52;;;;;;;;;;;;;;;;;;1026194;28;1642;-55
2022/08/20 00:32:23;;;;;;;;;;;;;;;;;;1025780;28;3826;-47
2022/08/20 00:32:58;;;;;;;;;;;;;;;;;;1026075;28;2162;-48
2022/08/20 00:33:28;;;;;;;;;;;;;;;;;;1026920;28;3890;-54
2022/08/20 00:33:58;;;;;;;;;;;;;;;;;;1026763;28;1478;-50
2022/08/20 00:34:29;;;;;;;;;;;;;;;;;;1025909;28;4147;-50
2022/08/20 00:34:59;;;;;;;;;;;;;;;;;;1025913;28;1922;-51
2022/08/20 00:35:30;;;;;;;;;;;;;;;;;;1025711;28;4083;-50
2022/08/20 00:36:05;;;;;;;;;;;;;;;;;;1026188;28;1666;-52
2022/08/20 00:36:35;;;;;;;;;;;;;;;;;;1025719;28;3906;-51
2022/08/20 00:37:06;;;;;;;;;;;;;;;;;;1026067;28;3121;-52
2022/08/20 00:37:36;;;;;;;;;;;;;;;;;;1026119;28;3885;-48
2022/08/20 00:38:07;;;;;;;;;;;;;;;;;;1026057;28;2312;-51
2022/08/20 00:38:38;;;;;;;;;;;;;;;;;;1025988;28;3887;-51
2022/08/20 00:39:09;;;;;;;;;;;;;;;;;;1026203;28;1731;-52
2022/08/20 00:39:39;;;;;;;;;;;;;;;;;;1026030;28;4256;-48
2022/08/20 00:40:11;;;;;;;;;;;;;;;;;;1025888;28;1664;-48
2022/08/20 00:40:52;;;;;;;;;;;;;;;;;;1026290;28;3944;-52
2022/08/20 00:41:24;;;;;;;;;;;;;;;;;;1026103;28;4287;-50
2022/08/20 00:41:54;;;;;;;;;;;;;;;;;;1026144;28;2492;-48
2022/08/20 00:42:24;;;;;;;;;;;;;;;;;;1025945;28;4163;-51
2022/08/20 00:42:57;;;;;;;;;;;;;;;;;;1025861;28;1707;-51
2022/08/20 00:43:30;;;;;;;;;;;;;;;;;;1026829;28;4098;-54
2022/08/20 00:44:12;;;;;;;;;;;;;;;;;;1027671;28;1671;-51
2022/08/20 00:44:46;;;;;;;;;;;;;;;;;;1025553;28;3884;-50
2022/08/20 00:45:16;;;;;;;;;;;;;;;;;;1026065;28;3124;-50
2022/08/20 00:45:47;;;;;;;;;;;;;;;;;;1025784;28;3880;-51
2022/08/20 00:46:19;;;;;;;;;;;;;;;;;;1025951;28;3116;-52
2022/08/20 00:46:51;;;;;;;;;;;;;;;;;;1025944;28;5077;-50
2022/08/20 00:47:21;;;;;;;;;;;;;;;;;;1025682;28;4589;-53
2022/08/20 00:47:54;;;;;;;;;;;;;;;;;;1024763;28;3160;-51
2022/08/20 00:48:25;;;;;;;;;;;;;;;;;;1025836;28;3936;-48
2022/08/20 00:48:57;;;;;;;;;;;;;;;;;;1025893;28;1467;-49
2022/08/20 00:49:29;;;;;;;;;;;;;;;;;;1026811;28;3920;-52
2022/08/20 00:49:59;;;;;;;;;;;;;;;;;;1025678;28;3522;-53
2022/08/20 00:50:35;;;;;;;;;;;;;;;;;;1026027;28;3874;-53
2022/08/20 00:51:08;;;;;;;;;;;;;;;;;;1025731;28;1127;-52
2022/08/20 00:51:41;;;;;;;;;;;;;;;;;;1025761;28;3962;-49
2022/08/20 00:52:14;;;;;;;;;;;;;;;;;;1026238;28;1701;-50
2022/08/20 00:52:47;;;;;;;;;;;;;;;;;;1025174;28;4016;-49
2022/08/20 00:53:19;;;;;;;;;;;;;;;;;;1025607;28;2208;-52
2022/08/20 00:53:49;;;;;;;;;;;;;;;;;;1022199;28;3877;-49
2022/08/20 00:54:22;;;;;;;;;;;;;;;;;;1022171;28;4282;-52
2022/08/20 00:54:55;;;;;;;;;;;;;;;;;;1026219;28;1605;-52
2022/08/20 00:55:26;;;;;;;;;;;;;;;;;;1025551;28;4062;-49
2022/08/20 00:55:56;;;;;;;;;;;;;;;;;;1025687;28;1721;-51
2022/08/20 00:56:27;;;;;;;;;;;;;;;;;;1025244;28;4030;-50
2022/08/20 00:57:01;;;;;;;;;;;;;;;;;;1026054;28;1596;-53
2022/08/20 00:57:35;;;;;;;;;;;;;;;;;;1025128;28;4303;-50
2022/08/20 00:58:08;;;;;;;;;;;;;;;;;;1025906;28;1408;-47
2022/08/20 00:58:41;;;;;;;;;;;;;;;;;;1025283;28;3810;-51
2022/08/20 00:59:14;;;;;;;;;;;;;;;;;;1026055;28;1080;-51
2022/08/20 00:59:44;;;;;;;;;;;;;;;;;;1026145;28;4270;-50
2022/08/20 01:00:17;;;;;;;;;;;;;;;;;;1029714;28;1932;-54
2022/08/20 01:00:48;;;;;;;;;;;;;;;;;;1030210;28;3987;-51
2022/08/20 01:01:21;;;;;;;;;;;;;;;;;;1030625;28;4243;-49
2022/08/20 01:01:52;;;;;;;;;;;;;;;;;;1029925;28;1379;-49
2022/08/20 01:02:24;;;;;;;;;;;;;;;;;;1025693;28;3901;-50
2022/08/20 01:02:54;;;;;;;;;;;;;;;;;;1024765;28;3414;-47
2022/08/20 01:03:25;;;;;;;;;;;;;;;;;;1025764;28;3912;-51
2022/08/20 01:03:56;;;;;;;;;;;;;;;;;;1026272;28;1668;-51
2022/08/20 01:04:27;;;;;;;;;;;;;;;;;;1026029;28;3911;-51
2022/08/20 01:04:58;;;;;;;;;;;;;;;;;;1026257;28;1930;-51
2022/08/20 01:05:28;;;;;;;;;;;;;;;;;;1025887;28;3889;-48
2022/08/20 01:05:59;;;;;;;;;;;;;;;;;;1026778;28;1589;-54
2022/08/20 01:06:29;;;;;;;;;;;;;;;;;;1026118;28;4236;-48
2022/08/20 01:07:00;;;;;;;;;;;;;;;;;;1026616;28;2061;-47
2022/08/20 01:07:33;;;;;;;;;;;;;;;;;;1025431;28;4057;-50
2022/08/20 01:08:04;;;;;;;;;;;;;;;;;;1026140;28;1722;-50
2022/08/20 01:08:34;;;;;;;;;;;;;;;;;;1025664;28;3907;-50
2022/08/20 01:09:05;;;;;;;;;;;;;;;;;;1025906;28;1360;-53
2022/08/20 01:09:36;;;;;;;;;;;;;;;;;;1026124;28;3896;-50
2022/08/20 01:10:09;;;;;;;;;;;;;;;;;;1026584;28;1351;-49
2022/08/20 01:10:40;;;;;;;;;;;;;;;;;;1025975;28;4092;-50
2022/08/20 01:11:20;;;;;;;;;;;;;;;;;;1026478;28;1375;-49
2022/08/20 01:11:50;;;;;;;;;;;;;;;;;;1025816;28;3803;-52
2022/08/20 01:12:22;;;;;;;;;;;;;;;;;;1025865;28;4145;-48
2022/08/20 01:12:54;;;;;;;;;;;;;;;;;;1026155;28;4081;-52
2022/08/20 01:13:26;;;;;;;;;;;;;;;;;;1026247;28;3920;-52
2022/08/20 01:13:57;;;;;;;;;;;;;;;;;;1026749;28;1599;-49
2022/08/20 01:15:04;;;;;;;;;;;;;;;;;;1028009;28;1796;-50
2022/08/20 01:15:35;;;;;;;;;;;;;;;;;;1018740;28;4082;-51
2022/08/20 01:16:15;;;;;;;;;;;;;;;;;;1020006;28;2288;-50
2022/08/20 01:16:47;;;;;;;;;;;;;;;;;;1021800;28;4033;-52
2022/08/20 01:17:26;;;;;;;;;;;;;;;;;;1022553;28;4153;-53
2022/08/20 01:17:57;;;;;;;;;;;;;;;;;;1025337;28;1658;-52
2022/08/20 01:18:27;;;;;;;;;;;;;;;;;;1025665;28;4176;-51
2022/08/20 01:18:59;;;;;;;;;;;;;;;;;;1026807;28;1820;-50
2022/08/20 01:19:33;;;;;;;;;;;;;;;;;;1025246;28;4175;-52
2022/08/20 01:20:07;;;;;;;;;;;;;;;;;;1026478;28;1431;-54
2022/08/20 01:20:40;;;;;;;;;;;;;;;;;;1027003;28;4117;-50
2022/08/20 01:21:10;;;;;;;;;;;;;;;;;;1023252;28;1896;-48
2022/08/20 01:21:40;;;;;;;;;;;;;;;;;;1025792;28;3955;-52
2022/08/20 01:23:26;;;;;;;;;;;;;;;;;;1026188;28;3816;-50
2022/08/20 01:24:06;;;;;;;;;;;;;;;;;;1025965;28;3933;-53
2022/08/20 01:24:38;;;;;;;;;;;;;;;;;;1026081;28;4103;-50
2022/08/20 01:25:13;;;;;;;;;;;;;;;;;;1025811;28;1973;-49
2022/08/20 01:25:43;;;;;;;;;;;;;;;;;;1025513;28;4058;-51
2022/08/20 01:26:16;;;;;;;;;;;;;;;;;;1026150;28;1738;-49
2022/08/20 01:26:47;;;;;;;;;;;;;;;;;;1025476;28;4014;-48
2022/08/20 01:27:18;;;;;;;;;;;;;;;;;;1025767;28;4150;-53
2022/08/20 01:27:49;;;;;;;;;;;;;;;;;;1025864;28;1529;-52
2022/08/20 01:28:30;;;;;;;;;;;;;;;;;;1025277;28;3823;-49
2022/08/20 01:29:11;;;;;;;;;;;;;;;;;;1026439;28;1547;-51
2022/08/20 01:29:49;;;;;;;;;;;;;;;;;;1025800;28;4096;-51
2022/08/20 01:30:19;;;;;;;;;;;;;;;;;;1026037;28;4054;-51
2022/08/20 01:30:50;;;;;;;;;;;;;;;;;;1026028;28;1706;-51
2022/08/20 01:31:21;;;;;;;;;;;;;;;;;;1025663;28;4053;-48
2022/08/20 01:31:52;;;;;;;;;;;;;;;;;;1025963;28;3739;-51
2022/08/20 01:32:22;;;;;;;;;;;;;;;;;;1025854;28;4032;-49
2022/08/20 01:32:52;;;;;;;;;;;;;;;;;;1026112;28;2313;-51
2022/08/20 01:33:23;;;;;;;;;;;;;;;;;;1026374;28;3897;-51
2022/08/20 01:33:54;;;;;;;;;;;;;;;;;;1027032;28;1724;-52
2022/08/20 01:34:25;;;;;;;;;;;;;;;;;;1026885;28;3842;-49
2022/08/20 01:34:55;;;;;;;;;;;;;;;;;;1026469;28;1395;-50
2022/08/20 01:35:27;;;;;;;;;;;;;;;;;;1026648;28;4440;-49
2022/08/20 01:35:57;;;;;;;;;;;;;;;;;;1026616;28;1961;-52
2022/08/20 01:36:33;;;;;;;;;;;;;;;;;;1026954;28;3789;-50
2022/08/20 01:37:04;;;;;;;;;;;;;;;;;;1026941;28;1489;-52
2022/08/20 01:37:34;;;;;;;;;;;;;;;;;;1027074;28;3887;-48
2022/08/20 01:38:05;;;;;;;;;;;;;;;;;;1026862;28;1794;-49
2022/08/20 01:38:36;;;;;;;;;;;;;;;;;;1026372;28;4033;-48
2022/08/20 01:39:08;;;;;;;;;;;;;;;;;;1027739;28;2156;-49
2022/08/20 01:39:39;;;;;;;;;;;;;;;;;;1026522;28;3844;-50
2022/08/20 01:40:12;;;;;;;;;;;;;;;;;;1026774;28;1968;-48
2022/08/20 01:40:59;;;;;;;;;;;;;;;;;;1026854;28;4132;-51
2022/08/20 01:41:48;;;;;;;;;;;;;;;;;;1026160;28;3910;-51
2022/08/20 01:42:21;;;;;;;;;;;;;;;;;;1026764;28;3918;-50
2022/08/20 01:42:52;;;;;;;;;;;;;;;;;;1027256;28;1575;-49
2022/08/20 01:43:23;;;;;;;;;;;;;;;;;;1026740;28;4067;-51
2022/08/20 01:43:56;;;;;;;;;;;;;;;;;;1026790;28;1754;-50
2022/08/20 01:44:28;;;;;;;;;;;;;;;;;;1026101;28;3940;-52
2022/08/20 01:44:59;;;;;;;;;;;;;;;;;;1026573;28;2280;-48
2022/08/20 01:45:30;;;;;;;;;;;;;;;;;;1026102;28;4069;-50
2022/08/20 01:46:00;;;;;;;;;;;;;;;;;;1026812;28;2936;-51
2022/08/20 01:46:35;;;;;;;;;;;;;;;;;;1025614;28;3906;-50
2022/08/20 01:47:13;;;;;;;;;;;;;;;;;;1026004;28;2083;-50
2022/08/20 01:47:43;;;;;;;;;;;;;;;;;;1023391;28;5004;-50
2022/08/20 01:48:14;;;;;;;;;;;;;;;;;;1026760;28;2948;-51
2022/08/20 01:48:44;;;;;;;;;;;;;;;;;;1029123;28;4048;-51
2022/08/20 01:49:16;;;;;;;;;;;;;;;;;;1029866;28;1751;-49
2022/08/20 01:49:51;;;;;;;;;;;;;;;;;;1026773;28;4001;-50
2022/08/20 01:50:24;;;;;;;;;;;;;;;;;;1030610;28;3947;-49
2022/08/20 01:51:03;;;;;;;;;;;;;;;;;;1026939;28;1045;-50
2022/08/20 01:51:33;;;;;;;;;;;;;;;;;;1026053;28;3877;-48
2022/08/20 01:52:06;;;;;;;;;;;;;;;;;;1026854;28;1640;-51
2022/08/20 01:52:44;;;;;;;;;;;;;;;;;;1029174;28;3913;-51
2022/08/20 01:53:19;;;;;;;;;;;;;;;;;;1029775;28;1546;-51
2022/08/20 01:53:51;;;;;;;;;;;;;;;;;;1028592;28;3792;-53
2022/08/20 01:54:22;;;;;;;;;;;;;;;;;;1027492;28;3844;-51
2022/08/20 01:54:52;;;;;;;;;;;;;;;;;;1026552;28;2492;-50
2022/08/20 01:55:23;;;;;;;;;;;;;;;;;;1027108;28;3846;-50
2022/08/20 01:55:53;;;;;;;;;;;;;;;;;;1025478;28;2967;-50
2022/08/20 01:56:25;;;;;;;;;;;;;;;;;;1025800;28;4115;-52
2022/08/20 01:57:03;;;;;;;;;;;;;;;;;;1026493;28;1706;-49
2022/08/20 01:57:34;;;;;;;;;;;;;;;;;;1025892;28;4308;-52
2022/08/20 01:58:04;;;;;;;;;;;;;;;;;;1026493;28;1958;-52
2022/08/20 01:58:36;;;;;;;;;;;;;;;;;;1026505;28;4071;-50
2022/08/20 01:59:06;;;;;;;;;;;;;;;;;;1026258;28;2453;-51
2022/08/20 01:59:37;;;;;;;;;;;;;;;;;;1026360;28;3965;-52
2022/08/20 02:00:09;;;;;;;;;;;;;;;;;;1026276;28;1900;-51
2022/08/20 02:00:40;;;;;;;;;;;;;;;;;;1025917;28;4056;-53
2022/08/20 02:01:25;;;;;;;;;;;;;;;;;;1026980;28;3264;-51
2022/08/20 02:01:56;;;;;;;;;;;;;;;;;;1025554;28;3757;-50
2022/08/20 02:02:26;;;;;;;;;;;;;;;;;;1026549;28;3815;-52
2022/08/20 02:02:56;;;;;;;;;;;;;;;;;;1025806;28;2959;-51
2022/08/20 02:03:27;;;;;;;;;;;;;;;;;;1026890;28;4417;-51
2022/08/20 02:03:58;;;;;;;;;;;;;;;;;;1026021;28;1588;-54
2022/08/20 02:04:28;;;;;;;;;;;;;;;;;;1026799;28;4027;-51
2022/08/20 02:04:59;;;;;;;;;;;;;;;;;;1027326;28;2578;-51
2022/08/20 02:05:30;;;;;;;;;;;;;;;;;;1026949;28;3889;-51
2022/08/20 02:06:00;;;;;;;;;;;;;;;;;;1027174;28;2166;-50
2022/08/20 02:06:37;;;;;;;;;;;;;;;;;;1026362;28;3908;-50
2022/08/20 02:07:11;;;;;;;;;;;;;;;;;;1026637;28;1682;-46
2022/08/20 02:07:41;;;;;;;;;;;;;;;;;;1026590;28;3940;-50
2022/08/20 02:08:12;;;;;;;;;;;;;;;;;;1026858;28;1795;-49
2022/08/20 02:08:42;;;;;;;;;;;;;;;;;;1025030;28;3837;-51
2022/08/20 02:09:12;;;;;;;;;;;;;;;;;;1026615;28;1144;-50
2022/08/20 02:09:43;;;;;;;;;;;;;;;;;;1026018;28;3899;-51
2022/08/20 02:10:15;;;;;;;;;;;;;;;;;;1026683;28;1775;-48
2022/08/20 02:10:52;;;;;;;;;;;;;;;;;;1026204;28;3949;-50
2022/08/20 02:11:22;;;;;;;;;;;;;;;;;;1026583;28;4041;-50
2022/08/20 02:11:53;;;;;;;;;;;;;;;;;;1026748;28;1390;-51
2022/08/20 02:12:23;;;;;;;;;;;;;;;;;;1029171;28;4202;-52
2022/08/20 02:12:53;;;;;;;;;;;;;;;;;;1030866;28;4044;-50
2022/08/20 02:13:24;;;;;;;;;;;;;;;;;;1031055;28;4037;-52
2022/08/20 02:13:55;;;;;;;;;;;;;;;;;;1030741;28;2429;-50
2022/08/20 02:14:26;;;;;;;;;;;;;;;;;;1029892;28;4477;-54
2022/08/20 02:14:56;;;;;;;;;;;;;;;;;;1026538;28;1555;-51
2022/08/20 02:15:27;;;;;;;;;;;;;;;;;;1026454;28;4979;-48
2022/08/20 02:15:57;;;;;;;;;;;;;;;;;;1026793;28;2052;-50
2022/08/20 02:16:30;;;;;;;;;;;;;;;;;;1026649;28;4074;-50
2022/08/20 02:17:00;;;;;;;;;;;;;;;;;;1025805;28;3155;-50
2022/08/20 02:17:30;;;;;;;;;;;;;;;;;;1026663;28;4106;-48
2022/08/20 02:18:09;;;;;;;;;;;;;;;;;;1026725;28;2739;-50
2022/08/20 02:18:39;;;;;;;;;;;;;;;;;;1025718;28;3812;-51
2022/08/20 02:19:12;;;;;;;;;;;;;;;;;;1026752;28;2250;-53
2022/08/20 02:19:44;;;;;;;;;;;;;;;;;;1026341;28;3995;-50
2022/08/20 02:20:16;;;;;;;;;;;;;;;;;;1026829;28;1323;-49
2022/08/20 02:20:47;;;;;;;;;;;;;;;;;;1025989;28;4024;-51
2022/08/20 02:21:17;;;;;;;;;;;;;;;;;;1026799;28;1566;-46
2022/08/20 02:21:50;;;;;;;;;;;;;;;;;;1026120;28;3811;-49
2022/08/20 02:22:23;;;;;;;;;;;;;;;;;;1026359;28;3919;-47
2022/08/20 02:22:54;;;;;;;;;;;;;;;;;;1027016;28;1514;-50
2022/08/20 02:23:25;;;;;;;;;;;;;;;;;;1026436;28;3833;-48
2022/08/20 02:23:56;;;;;;;;;;;;;;;;;;1027343;28;3008;-48
2022/08/20 02:24:26;;;;;;;;;;;;;;;;;;1026499;28;3893;-50
2022/08/20 02:24:57;;;;;;;;;;;;;;;;;;1026307;28;1972;-52
2022/08/20 02:25:29;;;;;;;;;;;;;;;;;;1026465;28;4002;-48
2022/08/20 02:25:59;;;;;;;;;;;;;;;;;;1026284;28;3070;-50
2022/08/20 02:26:29;;;;;;;;;;;;;;;;;;1026432;28;3831;-49
2022/08/20 02:27:00;;;;;;;;;;;;;;;;;;1027026;28;2626;-49
2022/08/20 02:27:31;;;;;;;;;;;;;;;;;;1025778;28;4877;-50
2022/08/20 02:28:04;;;;;;;;;;;;;;;;;;1026614;28;2831;-53
2022/08/20 02:28:41;;;;;;;;;;;;;;;;;;1025893;28;3804;-47
2022/08/20 02:29:19;;;;;;;;;;;;;;;;;;1026611;28;2962;-49
2022/08/20 02:29:56;;;;;;;;;;;;;;;;;;1029546;28;3862;-50
2022/08/20 02:30:27;;;;;;;;;;;;;;;;;;1029741;28;4056;-49
2022/08/20 02:31:00;;;;;;;;;;;;;;;;;;1029415;28;1752;-49
2022/08/20 02:31:31;;;;;;;;;;;;;;;;;;1028621;28;4100;-51
2022/08/20 02:32:01;;;;;;;;;;;;;;;;;;1026376;28;1557;-51
2022/08/20 02:32:31;;;;;;;;;;;;;;;;;;1025841;28;3971;-48
2022/08/20 02:33:03;;;;;;;;;;;;;;;;;;1027022;28;1672;-48
2022/08/20 02:33:34;;;;;;;;;;;;;;;;;;1030535;28;4058;-48
2022/08/20 02:34:05;;;;;;;;;;;;;;;;;;1031118;28;2153;-50
2022/08/20 02:34:36;;;;;;;;;;;;;;;;;;1026779;28;4053;-52
2022/08/20 02:35:09;;;;;;;;;;;;;;;;;;1026631;28;1231;-53
2022/08/20 02:35:41;;;;;;;;;;;;;;;;;;1026076;28;4107;-50
2022/08/20 02:36:13;;;;;;;;;;;;;;;;;;1026916;28;2015;-53
2022/08/20 02:36:51;;;;;;;;;;;;;;;;;;1026861;28;3966;-51
2022/08/20 02:37:21;;;;;;;;;;;;;;;;;;1025842;28;3933;-47
2022/08/20 02:37:52;;;;;;;;;;;;;;;;;;1026938;28;1786;-52
2022/08/20 02:38:23;;;;;;;;;;;;;;;;;;1026727;28;4078;-48
2022/08/20 02:38:53;;;;;;;;;;;;;;;;;;1026741;28;1699;-48
2022/08/20 02:39:25;;;;;;;;;;;;;;;;;;1026165;28;4083;-50
2022/08/20 02:39:55;;;;;;;;;;;;;;;;;;1030288;28;2195;-51
2022/08/20 02:40:26;;;;;;;;;;;;;;;;;;1026666;28;4034;-49
2022/08/20 02:40:56;;;;;;;;;;;;;;;;;;1027091;28;1646;-49
2022/08/20 02:41:27;;;;;;;;;;;;;;;;;;1026798;28;3873;-49
2022/08/20 02:41:57;;;;;;;;;;;;;;;;;;1026943;28;1166;-50
2022/08/20 02:42:27;;;;;;;;;;;;;;;;;;1029373;28;4119;-51
2022/08/20 02:42:58;;;;;;;;;;;;;;;;;;1029883;28;1848;-52
2022/08/20 02:43:30;;;;;;;;;;;;;;;;;;1029620;28;3921;-49
2022/08/20 02:44:01;;;;;;;;;;;;;;;;;;1030375;28;2569;-52
2022/08/20 02:44:31;;;;;;;;;;;;;;;;;;1029961;28;3904;-53
2022/08/20 02:45:05;;;;;;;;;;;;;;;;;;1030452;28;1891;-51
2022/08/20 02:45:37;;;;;;;;;;;;;;;;;;1026201;28;4343;-53
2022/08/20 02:46:07;;;;;;;;;;;;;;;;;;1026342;28;1363;-50
2022/08/20 02:46:37;;;;;;;;;;;;;;;;;;1026869;28;3907;-49
2022/08/20 02:47:08;;;;;;;;;;;;;;;;;;1026146;28;2160;-49
2022/08/20 02:47:38;;;;;;;;;;;;;;;;;;1025866;28;3892;-52
2022/08/20 02:48:10;;;;;;;;;;;;;;;;;;1027245;28;1735;-51
2022/08/20 02:48:41;;;;;;;;;;;;;;;;;;1027435;28;4052;-49
2022/08/20 02:49:11;;;;;;;;;;;;;;;;;;1026373;28;2769;-50
2022/08/20 02:49:41;;;;;;;;;;;;;;;;;;1026206;28;4282;-50
2022/08/20 02:50:13;;;;;;;;;;;;;;;;;;1031010;28;3128;-52
2022/08/20 02:50:44;;;;;;;;;;;;;;;;;;1030194;28;3845;-52
2022/08/20 02:51:14;;;;;;;;;;;;;;;;;;1030589;28;3010;-52
2022/08/20 02:51:44;;;;;;;;;;;;;;;;;;1030325;28;4065;-52
2022/08/20 02:52:15;;;;;;;;;;;;;;;;;;1026807;28;1669;-53
2022/08/20 02:52:45;;;;;;;;;;;;;;;;;;1026315;28;4054;-55
2022/08/20 02:53:15;;;;;;;;;;;;;;;;;;1026874;28;2099;-51
2022/08/20 02:53:46;;;;;;;;;;;;;;;;;;1026346;28;3949;-52
2022/08/20 02:54:16;;;;;;;;;;;;;;;;;;1026453;28;2749;-52
2022/08/20 02:54:50;;;;;;;;;;;;;;;;;;1026541;28;3864;-51
2022/08/20 02:55:21;;;;;;;;;;;;;;;;;;1026394;28;4056;-49
2022/08/20 02:55:52;;;;;;;;;;;;;;;;;;1026194;28;1735;-53
2022/08/20 02:56:22;;;;;;;;;;;;;;;;;;1026378;28;4074;-51
2022/08/20 02:56:52;;;;;;;;;;;;;;;;;;1026559;28;1993;-51
2022/08/20 02:57:23;;;;;;;;;;;;;;;;;;1026304;28;3975;-50
2022/08/20 02:57:57;;;;;;;;;;;;;;;;;;1026782;28;1931;-50
2022/08/20 02:58:27;;;;;;;;;;;;;;;;;;1026205;28;4302;-52
2022/08/20 02:58:57;;;;;;;;;;;;;;;;;;1025826;28;3189;-53
2022/08/20 02:59:28;;;;;;;;;;;;;;;;;;1024992;28;3825;-51
2022/08/20 02:59:58;;;;;;;;;;;;;;;;;;1025771;28;3380;-50
2022/08/20 03:00:30;;;;;;;;;;;;;;;;;;1026231;28;3923;-50
2022/08/20 03:01:01;;;;;;;;;;;;;;;;;;1030986;28;1277;-49
2022/08/20 03:01:31;;;;;;;;;;;;;;;;;;1029402;28;4027;-51
2022/08/20 03:02:01;;;;;;;;;;;;;;;;;;1030300;28;1667;-52
2022/08/20 03:02:32;;;;;;;;;;;;;;;;;;1029372;28;3820;-50
2022/08/20 03:03:02;;;;;;;;;;;;;;;;;;1026859;28;1936;-49
2022/08/20 03:03:33;;;;;;;;;;;;;;;;;;1025907;28;4013;-50
2022/08/20 03:04:03;;;;;;;;;;;;;;;;;;1026814;28;1683;-52
2022/08/20 03:04:34;;;;;;;;;;;;;;;;;;1025843;28;3909;-50
2022/08/20 03:05:04;;;;;;;;;;;;;;;;;;1027024;28;1914;-51
2022/08/20 03:05:35;;;;;;;;;;;;;;;;;;1027193;28;3905;-51
2022/08/20 03:06:06;;;;;;;;;;;;;;;;;;1026291;28;1315;-49
2022/08/20 03:06:37;;;;;;;;;;;;;;;;;;1026235;28;4620;-52
2022/08/20 03:07:09;;;;;;;;;;;;;;;;;;1026823;28;1684;-48
2022/08/20 03:07:40;;;;;;;;;;;;;;;;;;1025748;28;3944;-47
2022/08/20 03:08:11;;;;;;;;;;;;;;;;;;1026858;28;2045;-49
2022/08/20 03:08:42;;;;;;;;;;;;;;;;;;1025447;28;3759;-52
2022/08/20 03:09:12;;;;;;;;;;;;;;;;;;1026910;28;2158;-52
2022/08/20 03:09:42;;;;;;;;;;;;;;;;;;1029015;28;3880;-50
2022/08/20 03:10:13;;;;;;;;;;;;;;;;;;1030591;28;1193;-54
2022/08/20 03:10:50;;;;;;;;;;;;;;;;;;1029811;28;4201;-52
2022/08/20 03:11:21;;;;;;;;;;;;;;;;;;1026394;28;3953;-49
2022/08/20 03:11:51;;;;;;;;;;;;;;;;;;1029675;28;2770;-49
2022/08/20 03:12:22;;;;;;;;;;;;;;;;;;1029174;28;4143;-52
2022/08/20 03:12:52;;;;;;;;;;;;;;;;;;1029843;28;2889;-51
2022/08/20 03:13:23;;;;;;;;;;;;;;;;;;1030237;28;3899;-52
2022/08/20 03:13:53;;;;;;;;;;;;;;;;;;1030195;28;1672;-53
2022/08/20 03:14:24;;;;;;;;;;;;;;;;;;1025655;28;3883;-50
2022/08/20 03:14:54;;;;;;;;;;;;;;;;;;1026183;28;2722;-50
2022/08/20 03:15:24;;;;;;;;;;;;;;;;;;1026386;28;3992;-49
2022/08/20 03:15:56;;;;;;;;;;;;;;;;;;1026358;28;1694;-52
2022/08/20 03:16:26;;;;;;;;;;;;;;;;;;1026685;28;4050;-55
2022/08/20 03:16:57;;;;;;;;;;;;;;;;;;1026573;28;2349;-48
2022/08/20 03:17:34;;;;;;;;;;;;;;;;;;1026775;28;4061;-52
2022/08/20 03:18:04;;;;;;;;;;;;;;;;;;1025772;28;2901;-51
2022/08/20 03:18:36;;;;;;;;;;;;;;;;;;1026683;28;3848;-52
2022/08/20 03:19:07;;;;;;;;;;;;;;;;;;1026247;28;1362;-49
2022/08/20 03:19:37;;;;;;;;;;;;;;;;;;1024923;28;4182;-50
2022/08/20 03:20:08;;;;;;;;;;;;;;;;;;1026871;28;2658;-50
2022/08/20 03:20:39;;;;;;;;;;;;;;;;;;1026017;28;3947;-49
2022/08/20 03:21:10;;;;;;;;;;;;;;;;;;1026250;28;1305;-50
2022/08/20 03:21:40;;;;;;;;;;;;;;;;;;1029287;28;3796;-50
2022/08/20 03:22:11;;;;;;;;;;;;;;;;;;1031341;28;1434;-53
2022/08/20 03:22:41;;;;;;;;;;;;;;;;;;1029951;28;4046;-49
2022/08/20 03:23:12;;;;;;;;;;;;;;;;;;1029951;28;1926;-51
2022/08/20 03:23:42;;;;;;;;;;;;;;;;;;1025657;28;4097;-52
2022/08/20 03:24:12;;;;;;;;;;;;;;;;;;1027463;28;1357;-54
2022/08/20 03:24:44;;;;;;;;;;;;;;;;;;1025974;28;3959;-51
2022/08/20 03:25:14;;;;;;;;;;;;;;;;;;1026796;28;2401;-52
2022/08/20 03:25:45;;;;;;;;;;;;;;;;;;1025607;28;4162;-53
2022/08/20 03:26:16;;;;;;;;;;;;;;;;;;1026343;28;1407;-51
2022/08/20 03:26:46;;;;;;;;;;;;;;;;;;1025905;28;4226;-53
2022/08/20 03:27:16;;;;;;;;;;;;;;;;;;1027160;28;2476;-53
2022/08/20 03:27:48;;;;;;;;;;;;;;;;;;1025692;28;4140;-49
2022/08/20 03:28:18;;;;;;;;;;;;;;;;;;1026260;28;4001;-51
2022/08/20 03:28:55;;;;;;;;;;;;;;;;;;1026497;28;1661;-52
2022/08/20 03:29:32;;;;;;;;;;;;;;;;;;1025966;28;4269;-49
2022/08/20 03:30:11;;;;;;;;;;;;;;;;;;1026346;28;1524;-53
2022/08/20 03:30:42;;;;;;;;;;;;;;;;;;1026022;28;3971;-52
2022/08/20 03:31:14;;;;;;;;;;;;;;;;;;1026602;28;3162;-51
2022/08/20 03:31:44;;;;;;;;;;;;;;;;;;1026143;28;3871;-54
2022/08/20 03:32:14;;;;;;;;;;;;;;;;;;1026238;28;1410;-52
2022/08/20 03:32:45;;;;;;;;;;;;;;;;;;1026265;28;4103;-51
2022/08/20 03:33:15;;;;;;;;;;;;;;;;;;1026568;28;1238;-52
2022/08/20 03:33:45;;;;;;;;;;;;;;;;;;1025394;28;4179;-52
2022/08/20 03:34:16;;;;;;;;;;;;;;;;;;1026069;28;2702;-50
2022/08/20 03:34:46;;;;;;;;;;;;;;;;;;1025790;28;4008;-49
2022/08/20 03:35:18;;;;;;;;;;;;;;;;;;1026041;28;1930;-49
2022/08/20 03:35:49;;;;;;;;;;;;;;;;;;1026159;28;3993;-53
2022/08/20 03:36:22;;;;;;;;;;;;;;;;;;1025372;28;3978;-51
2022/08/20 03:36:53;;;;;;;;;;;;;;;;;;1026636;28;3565;-51
2022/08/20 03:37:24;;;;;;;;;;;;;;;;;;1025700;28;4099;-51
2022/08/20 03:37:55;;;;;;;;;;;;;;;;;;1026810;28;1658;-50
2022/08/20 03:38:25;;;;;;;;;;;;;;;;;;1026256;28;3961;-50
2022/08/20 03:38:56;;;;;;;;;;;;;;;;;;1026275;28;1528;-50
2022/08/20 03:39:27;;;;;;;;;;;;;;;;;;1026527;28;3926;-53
2022/08/20 03:39:57;;;;;;;;;;;;;;;;;;1026404;28;1963;-53
2022/08/20 03:40:30;;;;;;;;;;;;;;;;;;1026367;28;4072;-51
2022/08/20 03:41:01;;;;;;;;;;;;;;;;;;1026617;28;1559;-51
2022/08/20 03:41:32;;;;;;;;;;;;;;;;;;1025713;28;4043;-51
2022/08/20 03:42:02;;;;;;;;;;;;;;;;;;1026476;28;1291;-49
2022/08/20 03:42:32;;;;;;;;;;;;;;;;;;1025537;28;4043;-50
2022/08/20 03:43:04;;;;;;;;;;;;;;;;;;1026743;28;1400;-54